sensor_id;sensor_type;location;lat;lon;timestamp;P1;durP1;ratioP1;P2;durP2;ratioP2
34204;SDS011;20471;49.680;20.074;2023-09-12T00:00:46;20.30;;;16.40;;
34204;SDS011;20471;49.680;20.074;2023-09-12T00:03:34;23.60;;;16.40;;
34204;SDS011;20471;49.680;20.074;2023-09-12T00:06:03;21.50;;;15.40;;
34204;SDS011;20471;49.680;20.074;2023-09-12T00:08:31;19.60;;;15.70;;
34204;SDS011;20471;49.680;20.074;2023-09-12T00:11:08;19.60;;;15.90;;
34204;SDS011;20471;49.680;20.074;2023-09-12T00:13:38;19.70;;;16.90;;
34204;SDS011;20471;49.680;20.074;2023-09-12T00:16:06;20.70;;;15.20;;
34204;SDS011;20471;49.680;20.074;2023-09-12T00:18:36;17.50;;;15.60;;
34204;SDS011;20471;49.680;20.074;2023-09-12T00:21:04;19.30;;;16.00;;
34204;SDS011;20471;49.680;20.074;2023-09-12T00:23:32;21.10;;;15.40;;
34204;SDS011;20471;49.680;20.074;2023-09-12T00:25:59;21.00;;;15.40;;
34204;SDS011;20471;49.680;20.074;2023-09-12T00:28:27;16.90;;;14.90;;
34204;SDS011;20471;49.680;20.074;2023-09-12T00:30:55;17.80;;;15.30;;
34204;SDS011;20471;49.680;20.074;2023-09-12T00:33:22;17.40;;;14.90;;
34204;SDS011;20471;49.680;20.074;2023-09-12T00:35:50;17.50;;;15.20;;
34204;SDS011;20471;49.680;20.074;2023-09-12T00:38:18;17.60;;;15.20;;
34204;SDS011;20471;49.680;20.074;2023-09-12T00:40:45;18.10;;;16.20;;
34204;SDS011;20471;49.680;20.074;2023-09-12T00:43:13;20.20;;;15.90;;
34204;SDS011;20471;49.680;20.074;2023-09-12T00:45:41;19.00;;;16.10;;
34204;SDS011;20471;49.680;20.074;2023-09-12T00:48:09;20.20;;;16.80;;
34204;SDS011;20471;49.680;20.074;2023-09-12T00:50:38;21.10;;;17.10;;
34204;SDS011;20471;49.680;20.074;2023-09-12T00:53:06;19.10;;;16.40;;
34204;SDS011;20471;49.680;20.074;2023-09-12T00:55:36;21.50;;;17.10;;
34204;SDS011;20471;49.680;20.074;2023-09-12T00:58:06;19.80;;;16.00;;
34204;SDS011;20471;49.680;20.074;2023-09-12T01:00:34;20.20;;;16.60;;
34204;SDS011;20471;49.680;20.074;2023-09-12T01:03:02;21.00;;;16.20;;
34204;SDS011;20471;49.680;20.074;2023-09-12T01:05:30;20.20;;;15.80;;
34204;SDS011;20471;49.680;20.074;2023-09-12T01:07:59;17.60;;;15.70;;
34204;SDS011;20471;49.680;20.074;2023-09-12T01:10:28;18.90;;;15.60;;
34204;SDS011;20471;49.680;20.074;2023-09-12T01:12:56;17.80;;;14.90;;
34204;SDS011;20471;49.680;20.074;2023-09-12T01:15:23;18.80;;;14.70;;
34204;SDS011;20471;49.680;20.074;2023-09-12T01:17:51;17.80;;;14.80;;
34204;SDS011;20471;49.680;20.074;2023-09-12T01:20:22;17.90;;;14.90;;
34204;SDS011;20471;49.680;20.074;2023-09-12T01:23:00;16.40;;;14.50;;
34204;SDS011;20471;49.680;20.074;2023-09-12T01:25:39;17.40;;;14.20;;
34204;SDS011;20471;49.680;20.074;2023-09-12T01:28:22;15.50;;;13.90;;
34204;SDS011;20471;49.680;20.074;2023-09-12T01:30:51;19.40;;;14.90;;
34204;SDS011;20471;49.680;20.074;2023-09-12T01:33:19;17.10;;;14.70;;
34204;SDS011;20471;49.680;20.074;2023-09-12T01:35:47;20.70;;;15.70;;
34204;SDS011;20471;49.680;20.074;2023-09-12T01:38:15;16.10;;;14.40;;
34204;SDS011;20471;49.680;20.074;2023-09-12T01:40:50;20.20;;;14.40;;
34204;SDS011;20471;49.680;20.074;2023-09-12T01:43:21;17.50;;;14.50;;
34204;SDS011;20471;49.680;20.074;2023-09-12T01:45:54;18.30;;;14.60;;
34204;SDS011;20471;49.680;20.074;2023-09-12T01:48:25;18.70;;;14.30;;
34204;SDS011;20471;49.680;20.074;2023-09-12T01:51:00;19.10;;;14.70;;
34204;SDS011;20471;49.680;20.074;2023-09-12T01:53:29;18.80;;;15.30;;
34204;SDS011;20471;49.680;20.074;2023-09-12T01:55:58;19.30;;;15.10;;
34204;SDS011;20471;49.680;20.074;2023-09-12T01:58:27;17.70;;;14.30;;
34204;SDS011;20471;49.680;20.074;2023-09-12T02:00:56;17.40;;;14.60;;
34204;SDS011;20471;49.680;20.074;2023-09-12T02:03:24;16.90;;;14.30;;
34204;SDS011;20471;49.680;20.074;2023-09-12T02:05:51;17.70;;;14.70;;
34204;SDS011;20471;49.680;20.074;2023-09-12T02:08:19;16.90;;;13.80;;
34204;SDS011;20471;49.680;20.074;2023-09-12T02:10:47;18.10;;;14.20;;
34204;SDS011;20471;49.680;20.074;2023-09-12T02:13:14;15.70;;;13.20;;
34204;SDS011;20471;49.680;20.074;2023-09-12T02:15:42;16.30;;;13.10;;
34204;SDS011;20471;49.680;20.074;2023-09-12T02:18:09;16.80;;;14.00;;
34204;SDS011;20471;49.680;20.074;2023-09-12T02:20:38;17.80;;;13.10;;
34204;SDS011;20471;49.680;20.074;2023-09-12T02:23:07;15.20;;;13.30;;
34204;SDS011;20471;49.680;20.074;2023-09-12T02:25:34;14.50;;;12.00;;
34204;SDS011;20471;49.680;20.074;2023-09-12T02:28:02;13.80;;;12.30;;
34204;SDS011;20471;49.680;20.074;2023-09-12T02:30:30;12.80;;;11.60;;
34204;SDS011;20471;49.680;20.074;2023-09-12T02:32:58;14.20;;;12.40;;
34204;SDS011;20471;49.680;20.074;2023-09-12T02:35:27;17.20;;;12.20;;
34204;SDS011;20471;49.680;20.074;2023-09-12T02:37:55;15.00;;;13.30;;
34204;SDS011;20471;49.680;20.074;2023-09-12T02:40:22;16.30;;;13.30;;
34204;SDS011;20471;49.680;20.074;2023-09-12T02:42:50;16.30;;;13.80;;
34204;SDS011;20471;49.680;20.074;2023-09-12T02:45:18;17.30;;;13.40;;
34204;SDS011;20471;49.680;20.074;2023-09-12T02:47:48;15.30;;;13.60;;
34204;SDS011;20471;49.680;20.074;2023-09-12T02:50:16;17.80;;;13.70;;
34204;SDS011;20471;49.680;20.074;2023-09-12T02:52:44;17.30;;;14.40;;
34204;SDS011;20471;49.680;20.074;2023-09-12T02:55:11;16.40;;;14.70;;
34204;SDS011;20471;49.680;20.074;2023-09-12T02:57:39;16.60;;;14.10;;
34204;SDS011;20471;49.680;20.074;2023-09-12T03:00:07;18.40;;;15.10;;
34204;SDS011;20471;49.680;20.074;2023-09-12T03:02:35;15.60;;;13.90;;
34204;SDS011;20471;49.680;20.074;2023-09-12T03:05:03;13.20;;;11.80;;
34204;SDS011;20471;49.680;20.074;2023-09-12T03:07:31;16.70;;;12.70;;
34204;SDS011;20471;49.680;20.074;2023-09-12T03:09:59;13.90;;;12.30;;
34204;SDS011;20471;49.680;20.074;2023-09-12T03:12:27;14.60;;;11.90;;
34204;SDS011;20471;49.680;20.074;2023-09-12T03:14:54;18.00;;;12.40;;
34204;SDS011;20471;49.680;20.074;2023-09-12T03:17:23;14.80;;;13.20;;
34204;SDS011;20471;49.680;20.074;2023-09-12T03:19:51;16.50;;;13.50;;
34204;SDS011;20471;49.680;20.074;2023-09-12T03:22:18;16.70;;;13.00;;
34204;SDS011;20471;49.680;20.074;2023-09-12T03:24:46;14.10;;;12.70;;
34204;SDS011;20471;49.680;20.074;2023-09-12T03:27:14;15.10;;;13.10;;
34204;SDS011;20471;49.680;20.074;2023-09-12T03:29:41;15.90;;;13.60;;
34204;SDS011;20471;49.680;20.074;2023-09-12T03:32:09;15.40;;;13.10;;
34204;SDS011;20471;49.680;20.074;2023-09-12T03:34:37;17.20;;;14.00;;
34204;SDS011;20471;49.680;20.074;2023-09-12T03:37:04;15.70;;;14.10;;
34204;SDS011;20471;49.680;20.074;2023-09-12T03:39:32;16.50;;;14.20;;
34204;SDS011;20471;49.680;20.074;2023-09-12T03:42:00;16.10;;;14.20;;
34204;SDS011;20471;49.680;20.074;2023-09-12T03:44:27;15.30;;;13.70;;
34204;SDS011;20471;49.680;20.074;2023-09-12T03:46:55;20.40;;;14.60;;
34204;SDS011;20471;49.680;20.074;2023-09-12T03:49:24;17.40;;;13.80;;
34204;SDS011;20471;49.680;20.074;2023-09-12T03:51:52;14.60;;;13.10;;
34204;SDS011;20471;49.680;20.074;2023-09-12T03:54:19;14.00;;;12.40;;
34204;SDS011;20471;49.680;20.074;2023-09-12T03:56:47;16.40;;;13.40;;
34204;SDS011;20471;49.680;20.074;2023-09-12T03:59:15;20.10;;;15.20;;
34204;SDS011;20471;49.680;20.074;2023-09-12T04:01:42;18.80;;;15.00;;
34204;SDS011;20471;49.680;20.074;2023-09-12T04:04:10;17.50;;;14.70;;
34204;SDS011;20471;49.680;20.074;2023-09-12T04:06:38;17.80;;;14.70;;
34204;SDS011;20471;49.680;20.074;2023-09-12T04:09:06;18.80;;;14.90;;
34204;SDS011;20471;49.680;20.074;2023-09-12T04:11:34;16.70;;;14.80;;
34204;SDS011;20471;49.680;20.074;2023-09-12T04:14:01;16.40;;;14.50;;
34204;SDS011;20471;49.680;20.074;2023-09-12T04:16:29;19.20;;;14.80;;
34204;SDS011;20471;49.680;20.074;2023-09-12T04:18:57;17.00;;;14.50;;
34204;SDS011;20471;49.680;20.074;2023-09-12T04:21:24;15.80;;;14.10;;
34204;SDS011;20471;49.680;20.074;2023-09-12T04:23:52;17.50;;;14.10;;
34204;SDS011;20471;49.680;20.074;2023-09-12T04:26:20;20.00;;;15.70;;
34204;SDS011;20471;49.680;20.074;2023-09-12T04:28:47;31.70;;;23.70;;
34204;SDS011;20471;49.680;20.074;2023-09-12T04:31:15;31.30;;;21.00;;
34204;SDS011;20471;49.680;20.074;2023-09-12T04:33:43;25.40;;;20.10;;
34204;SDS011;20471;49.680;20.074;2023-09-12T04:36:10;27.20;;;21.10;;
34204;SDS011;20471;49.680;20.074;2023-09-12T04:38:38;28.80;;;22.20;;
34204;SDS011;20471;49.680;20.074;2023-09-12T04:41:06;34.40;;;25.90;;
34204;SDS011;20471;49.680;20.074;2023-09-12T04:43:33;27.10;;;21.90;;
34204;SDS011;20471;49.680;20.074;2023-09-12T04:46:01;29.10;;;20.90;;
34204;SDS011;20471;49.680;20.074;2023-09-12T04:48:29;24.10;;;21.50;;
34204;SDS011;20471;49.680;20.074;2023-09-12T04:50:56;25.70;;;21.50;;
34204;SDS011;20471;49.680;20.074;2023-09-12T04:53:24;22.90;;;20.50;;
34204;SDS011;20471;49.680;20.074;2023-09-12T04:55:52;29.70;;;20.80;;
34204;SDS011;20471;49.680;20.074;2023-09-12T04:58:20;23.80;;;20.20;;
34204;SDS011;20471;49.680;20.074;2023-09-12T05:00:48;25.70;;;19.10;;
34204;SDS011;20471;49.680;20.074;2023-09-12T05:03:15;22.00;;;18.00;;
34204;SDS011;20471;49.680;20.074;2023-09-12T05:05:47;21.20;;;17.70;;
34204;SDS011;20471;49.680;20.074;2023-09-12T05:08:16;24.30;;;19.30;;
34204;SDS011;20471;49.680;20.074;2023-09-12T05:10:44;26.40;;;18.60;;
34204;SDS011;20471;49.680;20.074;2023-09-12T05:13:12;22.70;;;17.80;;
34204;SDS011;20471;49.680;20.074;2023-09-12T05:15:41;24.00;;;19.00;;
34204;SDS011;20471;49.680;20.074;2023-09-12T05:18:09;22.40;;;18.80;;
34204;SDS011;20471;49.680;20.074;2023-09-12T05:20:37;25.00;;;19.90;;
34204;SDS011;20471;49.680;20.074;2023-09-12T05:23:04;24.10;;;18.30;;
34204;SDS011;20471;49.680;20.074;2023-09-12T05:25:32;23.70;;;17.70;;
34204;SDS011;20471;49.680;20.074;2023-09-12T05:28:00;20.60;;;17.60;;
34204;SDS011;20471;49.680;20.074;2023-09-12T05:30:27;22.00;;;19.00;;
34204;SDS011;20471;49.680;20.074;2023-09-12T05:32:55;23.80;;;18.50;;
34204;SDS011;20471;49.680;20.074;2023-09-12T05:35:22;27.80;;;19.20;;
34204;SDS011;20471;49.680;20.074;2023-09-12T05:37:50;28.00;;;20.50;;
34204;SDS011;20471;49.680;20.074;2023-09-12T05:40:18;32.30;;;21.00;;
34204;SDS011;20471;49.680;20.074;2023-09-12T05:42:46;26.40;;;19.90;;
34204;SDS011;20471;49.680;20.074;2023-09-12T05:45:14;26.40;;;19.20;;
34204;SDS011;20471;49.680;20.074;2023-09-12T05:47:41;24.70;;;18.60;;
34204;SDS011;20471;49.680;20.074;2023-09-12T05:50:09;26.40;;;18.50;;
34204;SDS011;20471;49.680;20.074;2023-09-12T05:52:37;28.70;;;17.90;;
34204;SDS011;20471;49.680;20.074;2023-09-12T05:55:05;29.80;;;18.50;;
34204;SDS011;20471;49.680;20.074;2023-09-12T05:57:33;27.30;;;18.60;;
34204;SDS011;20471;49.680;20.074;2023-09-12T06:00:01;27.60;;;19.90;;
34204;SDS011;20471;49.680;20.074;2023-09-12T06:02:30;33.50;;;20.10;;
34204;SDS011;20471;49.680;20.074;2023-09-12T06:04:59;31.90;;;19.70;;
34204;SDS011;20471;49.680;20.074;2023-09-12T06:07:27;34.10;;;19.70;;
34204;SDS011;20471;49.680;20.074;2023-09-12T06:09:55;32.20;;;20.90;;
34204;SDS011;20471;49.680;20.074;2023-09-12T06:12:23;30.20;;;20.70;;
34204;SDS011;20471;49.680;20.074;2023-09-12T06:14:51;38.00;;;20.90;;
34204;SDS011;20471;49.680;20.074;2023-09-12T06:17:19;38.00;;;21.50;;
34204;SDS011;20471;49.680;20.074;2023-09-12T06:19:47;36.60;;;20.70;;
34204;SDS011;20471;49.680;20.074;2023-09-12T06:22:17;27.10;;;20.60;;
34204;SDS011;20471;49.680;20.074;2023-09-12T06:24:46;29.70;;;20.40;;
34204;SDS011;20471;49.680;20.074;2023-09-12T06:27:13;26.60;;;20.30;;
34204;SDS011;20471;49.680;20.074;2023-09-12T06:29:45;26.10;;;19.90;;
34204;SDS011;20471;49.680;20.074;2023-09-12T06:32:14;25.90;;;19.70;;
34204;SDS011;20471;49.680;20.074;2023-09-12T06:34:43;28.80;;;20.20;;
34204;SDS011;20471;49.680;20.074;2023-09-12T06:37:11;25.70;;;19.80;;
34204;SDS011;20471;49.680;20.074;2023-09-12T06:39:39;28.60;;;20.70;;
34204;SDS011;20471;49.680;20.074;2023-09-12T06:42:07;22.20;;;19.70;;
34204;SDS011;20471;49.680;20.074;2023-09-12T06:44:36;28.10;;;19.00;;
34204;SDS011;20471;49.680;20.074;2023-09-12T06:47:04;30.70;;;21.20;;
34204;SDS011;20471;49.680;20.074;2023-09-12T06:49:32;27.90;;;20.60;;
34204;SDS011;20471;49.680;20.074;2023-09-12T06:52:02;29.70;;;20.20;;
34204;SDS011;20471;49.680;20.074;2023-09-12T06:54:30;23.50;;;19.60;;
34204;SDS011;20471;49.680;20.074;2023-09-12T06:56:58;21.20;;;19.00;;
34204;SDS011;20471;49.680;20.074;2023-09-12T06:59:25;24.70;;;18.80;;
34204;SDS011;20471;49.680;20.074;2023-09-12T07:01:53;29.60;;;19.70;;
34204;SDS011;20471;49.680;20.074;2023-09-12T07:04:21;26.50;;;19.40;;
34204;SDS011;20471;49.680;20.074;2023-09-12T07:06:49;22.80;;;18.10;;
34204;SDS011;20471;49.680;20.074;2023-09-12T07:09:17;25.40;;;18.40;;
34204;SDS011;20471;49.680;20.074;2023-09-12T07:11:47;28.10;;;19.20;;
34204;SDS011;20471;49.680;20.074;2023-09-12T07:14:15;31.50;;;19.40;;
34204;SDS011;20471;49.680;20.074;2023-09-12T07:16:43;24.10;;;18.30;;
34204;SDS011;20471;49.680;20.074;2023-09-12T07:19:10;26.60;;;17.50;;
34204;SDS011;20471;49.680;20.074;2023-09-12T07:21:38;24.80;;;17.90;;
34204;SDS011;20471;49.680;20.074;2023-09-12T07:24:06;21.60;;;17.60;;
34204;SDS011;20471;49.680;20.074;2023-09-12T07:26:34;28.40;;;17.90;;
34204;SDS011;20471;49.680;20.074;2023-09-12T07:29:01;22.70;;;15.10;;
34204;SDS011;20471;49.680;20.074;2023-09-12T07:31:31;18.80;;;14.20;;
34204;SDS011;20471;49.680;20.074;2023-09-12T07:33:59;20.10;;;14.10;;
34204;SDS011;20471;49.680;20.074;2023-09-12T07:36:27;17.00;;;13.60;;
34204;SDS011;20471;49.680;20.074;2023-09-12T07:38:54;16.20;;;13.10;;
34204;SDS011;20471;49.680;20.074;2023-09-12T07:41:22;18.60;;;11.90;;
34204;SDS011;20471;49.680;20.074;2023-09-12T07:43:50;14.40;;;12.10;;
34204;SDS011;20471;49.680;20.074;2023-09-12T07:46:17;14.90;;;12.40;;
34204;SDS011;20471;49.680;20.074;2023-09-12T07:48:45;15.40;;;11.80;;
34204;SDS011;20471;49.680;20.074;2023-09-12T07:51:16;14.50;;;12.50;;
34204;SDS011;20471;49.680;20.074;2023-09-12T07:53:44;16.90;;;11.90;;
34204;SDS011;20471;49.680;20.074;2023-09-12T07:56:12;12.80;;;11.20;;
34204;SDS011;20471;49.680;20.074;2023-09-12T07:58:40;14.80;;;11.30;;
34204;SDS011;20471;49.680;20.074;2023-09-12T08:01:07;15.20;;;10.50;;
34204;SDS011;20471;49.680;20.074;2023-09-12T08:03:37;12.20;;;10.00;;
34204;SDS011;20471;49.680;20.074;2023-09-12T08:06:06;12.00;;;10.50;;
34204;SDS011;20471;49.680;20.074;2023-09-12T08:08:34;15.60;;;10.20;;
34204;SDS011;20471;49.680;20.074;2023-09-12T08:11:02;13.00;;;10.10;;
34204;SDS011;20471;49.680;20.074;2023-09-12T08:13:30;13.20;;;9.50;;
34204;SDS011;20471;49.680;20.074;2023-09-12T08:15:57;11.40;;;9.40;;
34204;SDS011;20471;49.680;20.074;2023-09-12T08:18:26;10.80;;;9.20;;
34204;SDS011;20471;49.680;20.074;2023-09-12T08:20:57;12.50;;;10.20;;
34204;SDS011;20471;49.680;20.074;2023-09-12T08:23:25;10.90;;;9.10;;
34204;SDS011;20471;49.680;20.074;2023-09-12T08:25:53;15.40;;;9.60;;
34204;SDS011;20471;49.680;20.074;2023-09-12T08:28:20;18.50;;;9.40;;
34204;SDS011;20471;49.680;20.074;2023-09-12T08:30:48;12.70;;;9.80;;
34204;SDS011;20471;49.680;20.074;2023-09-12T08:33:16;11.20;;;9.90;;
34204;SDS011;20471;49.680;20.074;2023-09-12T08:35:44;15.70;;;10.00;;
34204;SDS011;20471;49.680;20.074;2023-09-12T08:38:12;16.00;;;9.90;;
34204;SDS011;20471;49.680;20.074;2023-09-12T08:40:39;11.70;;;9.40;;
34204;SDS011;20471;49.680;20.074;2023-09-12T08:43:08;17.20;;;9.30;;
34204;SDS011;20471;49.680;20.074;2023-09-12T08:45:35;14.60;;;10.40;;
34204;SDS011;20471;49.680;20.074;2023-09-12T08:48:03;14.70;;;9.40;;
34204;SDS011;20471;49.680;20.074;2023-09-12T08:50:33;11.00;;;9.20;;
34204;SDS011;20471;49.680;20.074;2023-09-12T08:53:01;16.00;;;9.30;;
34204;SDS011;20471;49.680;20.074;2023-09-12T08:55:30;12.90;;;8.60;;
34204;SDS011;20471;49.680;20.074;2023-09-12T08:57:59;15.20;;;9.00;;
34204;SDS011;20471;49.680;20.074;2023-09-12T09:00:29;15.00;;;9.10;;
34204;SDS011;20471;49.680;20.074;2023-09-12T09:02:58;9.00;;;8.10;;
34204;SDS011;20471;49.680;20.074;2023-09-12T09:05:27;16.10;;;8.30;;
34204;SDS011;20471;49.680;20.074;2023-09-12T09:07:56;9.00;;;8.10;;
34204;SDS011;20471;49.680;20.074;2023-09-12T09:10:25;8.40;;;7.10;;
34204;SDS011;20471;49.680;20.074;2023-09-12T09:12:58;10.30;;;7.60;;
34204;SDS011;20471;49.680;20.074;2023-09-12T09:15:26;13.00;;;7.10;;
34204;SDS011;20471;49.680;20.074;2023-09-12T09:17:56;8.40;;;7.50;;
34204;SDS011;20471;49.680;20.074;2023-09-12T09:20:28;11.60;;;7.50;;
34204;SDS011;20471;49.680;20.074;2023-09-12T09:23:03;9.20;;;7.50;;
34204;SDS011;20471;49.680;20.074;2023-09-12T09:25:32;10.00;;;7.00;;
34204;SDS011;20471;49.680;20.074;2023-09-12T09:28:02;11.30;;;6.90;;
34204;SDS011;20471;49.680;20.074;2023-09-12T09:30:44;11.80;;;7.20;;
34204;SDS011;20471;49.680;20.074;2023-09-12T09:35:41;8.40;;;6.90;;
34204;SDS011;20471;49.680;20.074;2023-09-12T09:38:09;12.90;;;7.00;;
34204;SDS011;20471;49.680;20.074;2023-09-12T09:40:42;9.70;;;6.40;;
34204;SDS011;20471;49.680;20.074;2023-09-12T09:43:11;14.20;;;7.00;;
34204;SDS011;20471;49.680;20.074;2023-09-12T09:45:46;8.60;;;7.20;;
34204;SDS011;20471;49.680;20.074;2023-09-12T09:48:20;10.00;;;7.00;;
34204;SDS011;20471;49.680;20.074;2023-09-12T09:50:50;7.90;;;7.10;;
34204;SDS011;20471;49.680;20.074;2023-09-12T09:53:26;9.60;;;7.40;;
34204;SDS011;20471;49.680;20.074;2023-09-12T09:56:10;8.20;;;7.40;;
34204;SDS011;20471;49.680;20.074;2023-09-12T09:58:48;10.20;;;6.70;;
34204;SDS011;20471;49.680;20.074;2023-09-12T10:01:20;10.10;;;6.30;;
34204;SDS011;20471;49.680;20.074;2023-09-12T10:03:50;11.10;;;6.80;;
34204;SDS011;20471;49.680;20.074;2023-09-12T10:06:19;8.30;;;6.10;;
34204;SDS011;20471;49.680;20.074;2023-09-12T10:08:50;11.50;;;7.50;;
34204;SDS011;20471;49.680;20.074;2023-09-12T10:11:23;8.20;;;6.70;;
34204;SDS011;20471;49.680;20.074;2023-09-12T10:13:55;12.40;;;6.50;;
34204;SDS011;20471;49.680;20.074;2023-09-12T10:16:26;7.10;;;6.40;;
34204;SDS011;20471;49.680;20.074;2023-09-12T10:21:36;7.00;;;6.30;;
34204;SDS011;20471;49.680;20.074;2023-09-12T10:24:09;8.30;;;6.50;;
34204;SDS011;20471;49.680;20.074;2023-09-12T10:26:38;6.60;;;6.10;;
34204;SDS011;20471;49.680;20.074;2023-09-12T10:29:12;6.80;;;6.20;;
34204;SDS011;20471;49.680;20.074;2023-09-12T10:31:41;8.90;;;6.70;;
34204;SDS011;20471;49.680;20.074;2023-09-12T10:34:10;8.00;;;6.30;;
34204;SDS011;20471;49.680;20.074;2023-09-12T10:36:40;8.80;;;6.70;;
34204;SDS011;20471;49.680;20.074;2023-09-12T10:39:09;8.70;;;6.90;;
34204;SDS011;20471;49.680;20.074;2023-09-12T10:41:39;11.60;;;6.90;;
34204;SDS011;20471;49.680;20.074;2023-09-12T10:44:11;7.90;;;6.80;;
34204;SDS011;20471;49.680;20.074;2023-09-12T10:46:44;7.60;;;6.70;;
34204;SDS011;20471;49.680;20.074;2023-09-12T10:49:14;10.40;;;6.30;;
34204;SDS011;20471;49.680;20.074;2023-09-12T10:51:44;8.00;;;7.20;;
34204;SDS011;20471;49.680;20.074;2023-09-12T10:54:13;9.20;;;6.50;;
34204;SDS011;20471;49.680;20.074;2023-09-12T10:56:42;8.10;;;6.90;;
34204;SDS011;20471;49.680;20.074;2023-09-12T10:59:12;7.30;;;6.60;;
34204;SDS011;20471;49.680;20.074;2023-09-12T11:01:44;8.00;;;7.00;;
34204;SDS011;20471;49.680;20.074;2023-09-12T11:06:50;8.80;;;7.10;;
34204;SDS011;20471;49.680;20.074;2023-09-12T11:11:58;8.00;;;7.00;;
34204;SDS011;20471;49.680;20.074;2023-09-12T11:14:29;13.30;;;8.10;;
34204;SDS011;20471;49.680;20.074;2023-09-12T11:17:19;7.70;;;6.80;;
34204;SDS011;20471;49.680;20.074;2023-09-12T11:19:50;6.90;;;6.20;;
34204;SDS011;20471;49.680;20.074;2023-09-12T11:22:26;11.00;;;7.50;;
34204;SDS011;20471;49.680;20.074;2023-09-12T11:24:57;9.90;;;7.30;;
34204;SDS011;20471;49.680;20.074;2023-09-12T11:27:43;9.20;;;7.00;;
34204;SDS011;20471;49.680;20.074;2023-09-12T11:30:23;9.40;;;7.40;;
34204;SDS011;20471;49.680;20.074;2023-09-12T11:32:53;10.10;;;7.20;;
34204;SDS011;20471;49.680;20.074;2023-09-12T11:35:22;8.20;;;7.00;;
34204;SDS011;20471;49.680;20.074;2023-09-12T11:37:52;10.70;;;7.10;;
34204;SDS011;20471;49.680;20.074;2023-09-12T11:40:25;8.10;;;7.10;;
34204;SDS011;20471;49.680;20.074;2023-09-12T11:43:23;10.80;;;8.10;;
34204;SDS011;20471;49.680;20.074;2023-09-12T11:45:54;8.30;;;7.50;;
34204;SDS011;20471;49.680;20.074;2023-09-12T11:48:23;10.70;;;7.00;;
34204;SDS011;20471;49.680;20.074;2023-09-12T11:50:55;8.30;;;7.50;;
34204;SDS011;20471;49.680;20.074;2023-09-12T11:53:25;7.40;;;6.80;;
34204;SDS011;20471;49.680;20.074;2023-09-12T11:55:59;9.30;;;7.10;;
34204;SDS011;20471;49.680;20.074;2023-09-12T11:58:28;11.70;;;7.40;;
34204;SDS011;20471;49.680;20.074;2023-09-12T12:00:57;10.00;;;7.20;;
34204;SDS011;20471;49.680;20.074;2023-09-12T12:03:26;10.10;;;6.90;;
34204;SDS011;20471;49.680;20.074;2023-09-12T12:05:55;10.10;;;7.50;;
34204;SDS011;20471;49.680;20.074;2023-09-12T12:08:23;10.20;;;7.70;;
34204;SDS011;20471;49.680;20.074;2023-09-12T12:10:52;8.30;;;7.50;;
34204;SDS011;20471;49.680;20.074;2023-09-12T12:13:21;8.30;;;7.50;;
34204;SDS011;20471;49.680;20.074;2023-09-12T12:15:49;7.80;;;6.90;;
34204;SDS011;20471;49.680;20.074;2023-09-12T12:18:17;10.50;;;7.90;;
34204;SDS011;20471;49.680;20.074;2023-09-12T12:20:45;8.30;;;7.00;;
34204;SDS011;20471;49.680;20.074;2023-09-12T12:23:13;10.60;;;7.30;;
34204;SDS011;20471;49.680;20.074;2023-09-12T12:25:40;9.80;;;7.30;;
34204;SDS011;20471;49.680;20.074;2023-09-12T12:28:08;8.30;;;6.90;;
34204;SDS011;20471;49.680;20.074;2023-09-12T12:30:36;7.50;;;6.80;;
34204;SDS011;20471;49.680;20.074;2023-09-12T12:33:08;7.60;;;6.90;;
34204;SDS011;20471;49.680;20.074;2023-09-12T12:35:37;9.90;;;7.00;;
34204;SDS011;20471;49.680;20.074;2023-09-12T12:38:04;8.20;;;7.40;;
34204;SDS011;20471;49.680;20.074;2023-09-12T12:40:36;8.30;;;7.20;;
34204;SDS011;20471;49.680;20.074;2023-09-12T12:43:15;8.60;;;7.20;;
34204;SDS011;20471;49.680;20.074;2023-09-12T12:45:51;7.80;;;7.10;;
34204;SDS011;20471;49.680;20.074;2023-09-12T12:48:30;8.40;;;7.30;;
34204;SDS011;20471;49.680;20.074;2023-09-12T12:51:12;8.30;;;7.50;;
34204;SDS011;20471;49.680;20.074;2023-09-12T12:54:03;11.30;;;7.60;;
34204;SDS011;20471;49.680;20.074;2023-09-12T12:56:32;11.70;;;7.40;;
34204;SDS011;20471;49.680;20.074;2023-09-12T12:59:01;11.40;;;7.30;;
34204;SDS011;20471;49.680;20.074;2023-09-12T13:04:07;7.90;;;7.20;;
34204;SDS011;20471;49.680;20.074;2023-09-12T13:06:36;11.70;;;8.10;;
34204;SDS011;20471;49.680;20.074;2023-09-12T13:09:04;11.10;;;7.00;;
34204;SDS011;20471;49.680;20.074;2023-09-12T13:11:32;11.00;;;8.00;;
34204;SDS011;20471;49.680;20.074;2023-09-12T13:14:01;8.00;;;7.20;;
34204;SDS011;20471;49.680;20.074;2023-09-12T13:16:30;8.90;;;8.10;;
34204;SDS011;20471;49.680;20.074;2023-09-12T13:18:58;11.00;;;7.60;;
34204;SDS011;20471;49.680;20.074;2023-09-12T13:21:25;12.30;;;7.80;;
34204;SDS011;20471;49.680;20.074;2023-09-12T13:23:54;13.00;;;7.30;;
34204;SDS011;20471;49.680;20.074;2023-09-12T13:26:22;10.20;;;7.40;;
34204;SDS011;20471;49.680;20.074;2023-09-12T13:28:49;9.00;;;7.60;;
34204;SDS011;20471;49.680;20.074;2023-09-12T13:31:17;10.80;;;7.20;;
34204;SDS011;20471;49.680;20.074;2023-09-12T13:33:45;9.30;;;8.10;;
34204;SDS011;20471;49.680;20.074;2023-09-12T13:36:12;8.20;;;7.20;;
34204;SDS011;20471;49.680;20.074;2023-09-12T13:38:40;9.70;;;8.10;;
34204;SDS011;20471;49.680;20.074;2023-09-12T13:41:08;8.30;;;7.60;;
34204;SDS011;20471;49.680;20.074;2023-09-12T13:43:35;8.40;;;7.40;;
34204;SDS011;20471;49.680;20.074;2023-09-12T13:46:03;7.90;;;7.20;;
34204;SDS011;20471;49.680;20.074;2023-09-12T13:48:31;8.30;;;7.50;;
34204;SDS011;20471;49.680;20.074;2023-09-12T13:50:58;11.60;;;7.40;;
34204;SDS011;20471;49.680;20.074;2023-09-12T13:53:26;8.60;;;7.80;;
34204;SDS011;20471;49.680;20.074;2023-09-12T13:55:54;9.40;;;7.60;;
34204;SDS011;20471;49.680;20.074;2023-09-12T13:58:24;9.30;;;7.90;;
34204;SDS011;20471;49.680;20.074;2023-09-12T14:00:51;9.10;;;7.30;;
34204;SDS011;20471;49.680;20.074;2023-09-12T14:03:19;9.00;;;8.10;;
34204;SDS011;20471;49.680;20.074;2023-09-12T14:05:47;8.50;;;7.60;;
34204;SDS011;20471;49.680;20.074;2023-09-12T14:08:15;9.40;;;8.30;;
34204;SDS011;20471;49.680;20.074;2023-09-12T14:10:42;10.50;;;7.90;;
34204;SDS011;20471;49.680;20.074;2023-09-12T14:13:10;10.30;;;7.60;;
34204;SDS011;20471;49.680;20.074;2023-09-12T14:15:38;8.40;;;7.30;;
34204;SDS011;20471;49.680;20.074;2023-09-12T14:18:05;9.50;;;7.50;;
34204;SDS011;20471;49.680;20.074;2023-09-12T14:20:33;9.40;;;7.80;;
34204;SDS011;20471;49.680;20.074;2023-09-12T14:23:01;9.70;;;7.60;;
34204;SDS011;20471;49.680;20.074;2023-09-12T14:25:29;10.20;;;7.20;;
34204;SDS011;20471;49.680;20.074;2023-09-12T14:27:57;8.50;;;7.50;;
34204;SDS011;20471;49.680;20.074;2023-09-12T14:30:25;11.00;;;7.80;;
34204;SDS011;20471;49.680;20.074;2023-09-12T14:33:00;10.50;;;7.50;;
34204;SDS011;20471;49.680;20.074;2023-09-12T14:35:28;8.80;;;7.30;;
34204;SDS011;20471;49.680;20.074;2023-09-12T14:37:56;8.60;;;7.70;;
34204;SDS011;20471;49.680;20.074;2023-09-12T14:40:25;8.60;;;7.90;;